createdAt,value
2018-11-03T00:01:18.009Z,8.13
2018-11-03T00:03:44.003Z,6.60
2018-11-03T00:06:09.991Z,7.23
2018-11-03T00:08:35.999Z,6.67
2018-11-03T00:11:02.019Z,8.10
2018-11-03T00:13:28.004Z,8.97
2018-11-03T00:15:53.986Z,7.70
2018-11-03T00:18:20.019Z,8.40
2018-11-03T00:20:46.744Z,6.83
2018-11-03T00:23:12.730Z,7.30
2018-11-03T00:25:38.732Z,7.37
2018-11-03T00:28:04.707Z,7.93
2018-11-03T00:30:30.700Z,8.00
2018-11-03T00:32:56.709Z,8.50
2018-11-03T00:35:22.687Z,8.43
2018-11-03T00:37:48.681Z,11.37
2018-11-03T00:40:14.676Z,8.33
2018-11-03T00:42:40.724Z,8.63
2018-11-03T00:45:06.666Z,10.40
2018-11-03T00:47:32.670Z,7.87
2018-11-03T00:49:58.662Z,7.50
2018-11-03T00:52:24.652Z,9.20
2018-11-03T00:54:50.657Z,8.13
2018-11-03T00:57:16.644Z,7.40
2018-11-03T00:59:42.637Z,9.43
2018-11-03T01:02:09.375Z,8.20
2018-11-03T01:04:36.110Z,7.60
2018-11-03T01:07:02.857Z,8.43
2018-11-03T01:09:29.572Z,7.40
2018-11-03T01:11:55.569Z,7.50
2018-11-03T01:14:21.564Z,8.53
2018-11-03T01:16:47.548Z,8.33
2018-11-03T01:19:13.541Z,8.10
2018-11-03T01:21:39.557Z,8.60
2018-11-03T01:24:15.546Z,9.27
2018-11-03T01:26:41.555Z,7.63
2018-11-03T01:29:07.532Z,8.20
2018-11-03T01:31:34.248Z,8.27
2018-11-03T01:34:00.237Z,9.43
2018-11-03T01:36:26.220Z,11.30
2018-11-03T01:38:52.963Z,10.33
2018-11-03T01:41:18.969Z,9.27
2018-11-03T01:43:45.695Z,9.23
2018-11-03T01:46:11.661Z,9.57
2018-11-03T01:48:37.675Z,7.13
2018-11-03T01:51:03.638Z,7.93
2018-11-03T01:53:29.603Z,8.10
2018-11-03T01:55:56.318Z,8.27
2018-11-03T01:58:22.311Z,7.97
2018-11-03T02:00:48.263Z,8.43
2018-11-03T02:03:14.261Z,9.20
2018-11-03T02:05:40.244Z,9.20
2018-11-03T02:08:06.244Z,8.40
2018-11-03T02:10:32.233Z,7.63
2018-11-03T02:12:58.228Z,8.00
2018-11-03T02:15:24.205Z,8.80
2018-11-03T02:17:50.180Z,9.73
2018-11-03T02:20:16.225Z,9.10
2018-11-03T02:22:42.217Z,9.07
2018-11-03T02:25:08.203Z,8.77
2018-11-03T02:27:34.188Z,8.83
2018-11-03T02:30:00.168Z,8.80
2018-11-03T02:32:26.898Z,7.80
2018-11-03T02:34:53.628Z,10.00
2018-11-03T02:37:19.601Z,9.60
2018-11-03T02:39:45.593Z,9.37
2018-11-03T02:42:12.309Z,8.97
2018-11-03T02:44:38.314Z,10.70
2018-11-03T02:47:04.329Z,9.90
2018-11-03T02:49:30.278Z,11.03
2018-11-03T02:51:56.247Z,13.80
2018-11-03T02:54:22.271Z,10.20
2018-11-03T02:56:48.236Z,10.80
2018-11-03T02:59:14.235Z,10.37
2018-11-03T03:01:40.201Z,9.80
2018-11-03T03:04:06.201Z,11.67
2018-11-03T03:06:32.202Z,11.57
2018-11-03T03:08:58.175Z,15.03
2018-11-03T03:11:24.136Z,12.60
2018-11-03T03:13:50.112Z,11.63
2018-11-03T03:16:16.116Z,12.40
2018-11-03T03:18:42.067Z,12.13
2018-11-03T03:21:08.059Z,12.77
2018-11-03T03:23:34.059Z,13.50
2018-11-03T03:26:00.036Z,14.27
2018-11-03T03:28:26.020Z,12.10
2018-11-03T03:30:52.025Z,14.07
2018-11-03T03:33:17.991Z,13.40
2018-11-03T03:35:43.995Z,13.37
2018-11-03T03:38:09.986Z,14.53
2018-11-03T03:40:35.956Z,13.60
2018-11-03T03:43:01.957Z,12.83
2018-11-03T03:45:27.930Z,12.63
2018-11-03T03:48:01.741Z,15.40
2018-11-03T03:50:28.476Z,14.00
2018-11-03T03:52:55.196Z,14.50
2018-11-03T03:55:21.203Z,15.80
2018-11-03T03:57:47.160Z,13.87
2018-11-03T04:00:13.167Z,13.83
2018-11-03T04:02:39.136Z,13.67
2018-11-03T04:05:05.135Z,12.37
2018-11-03T04:07:31.857Z,14.23
2018-11-03T04:09:57.849Z,14.00
2018-11-03T04:12:23.819Z,14.10
2018-11-03T04:14:50.563Z,13.37
2018-11-03T04:17:17.278Z,17.03
2018-11-03T04:19:43.264Z,13.60
2018-11-03T04:22:09.241Z,13.67
2018-11-03T04:24:35.215Z,14.47
2018-11-03T04:27:01.219Z,14.60
2018-11-03T04:29:27.197Z,13.87
2018-11-03T04:31:53.166Z,13.67
2018-11-03T04:34:19.188Z,12.80
2018-11-03T04:36:45.156Z,15.90
2018-11-03T04:39:11.175Z,16.90
2018-11-03T04:41:37.185Z,15.47
2018-11-03T04:44:03.181Z,21.53
2018-11-03T04:46:29.168Z,17.53
2018-11-03T04:48:55.898Z,17.50
2018-11-03T04:51:21.948Z,17.43
2018-11-03T04:53:47.961Z,17.27
2018-11-03T04:56:13.942Z,17.30
2018-11-03T04:58:39.929Z,17.50
2018-11-03T05:01:05.940Z,14.50
2018-11-03T05:03:31.928Z,15.90
2018-11-03T05:05:57.922Z,19.20
2018-11-03T05:08:23.917Z,14.43
2018-11-03T05:10:49.933Z,17.03
2018-11-03T05:13:15.929Z,15.80
2018-11-03T05:15:41.903Z,13.90
2018-11-03T05:18:07.898Z,13.30
2018-11-03T05:20:34.622Z,15.77
2018-11-03T05:23:01.348Z,14.63
2018-11-03T05:25:27.377Z,16.93
2018-11-03T05:27:53.377Z,15.57
2018-11-03T05:30:19.370Z,14.83
2018-11-03T05:32:45.396Z,15.37
2018-11-03T05:35:11.389Z,13.90
2018-11-03T05:37:38.125Z,15.10
2018-11-03T05:40:04.874Z,14.00
2018-11-03T05:42:30.870Z,14.77
2018-11-03T05:44:56.855Z,13.80
2018-11-03T05:47:22.846Z,18.17
2018-11-03T05:49:49.616Z,16.80
2018-11-03T05:52:15.612Z,22.70
2018-11-03T05:54:42.348Z,20.10
2018-11-03T05:57:08.371Z,18.57
2018-11-03T05:59:35.124Z,18.67
2018-11-03T06:02:01.113Z,17.97
2018-11-03T06:04:27.121Z,17.90
2018-11-03T06:06:53.107Z,18.23
2018-11-03T06:09:19.089Z,16.40
2018-11-03T06:11:45.060Z,17.33
2018-11-03T06:14:11.049Z,17.10
2018-11-03T06:16:37.812Z,17.77
2018-11-03T06:19:03.829Z,17.87
2018-11-03T06:21:29.837Z,19.73
2018-11-03T06:23:56.580Z,17.83
2018-11-03T06:26:23.328Z,18.53
2018-11-03T06:28:50.045Z,17.67
2018-11-03T06:31:16.033Z,17.23
2018-11-03T06:33:42.023Z,18.70
2018-11-03T06:36:08.044Z,19.97
2018-11-03T06:38:34.036Z,18.67
2018-11-03T06:41:00.025Z,28.30
2018-11-03T06:43:26.032Z,27.17
2018-11-03T06:45:52.030Z,25.80
2018-11-03T06:48:18.045Z,24.53
2018-11-03T06:50:44.780Z,21.60
2018-11-03T06:53:10.762Z,21.93
2018-11-03T06:55:36.765Z,21.87
2018-11-03T06:58:02.753Z,22.17
2018-11-03T07:00:29.513Z,23.70
2018-11-03T07:02:55.496Z,21.77
2018-11-03T07:05:21.664Z,20.60
2018-11-03T07:07:47.484Z,20.50
2018-11-03T07:10:13.493Z,21.83
2018-11-03T07:12:40.454Z,21.00
2018-11-03T07:15:06.216Z,23.37
2018-11-03T07:17:32.256Z,24.00
2018-11-03T07:19:58.217Z,22.73
2018-11-03T07:22:24.185Z,21.63
2018-11-03T07:24:50.181Z,18.70
2018-11-03T07:27:16.173Z,19.13
2018-11-03T07:29:43.023Z,22.47
2018-11-03T07:32:09.649Z,19.03
2018-11-03T07:34:36.369Z,19.53
2018-11-03T07:37:02.371Z,18.60
2018-11-03T07:39:28.332Z,19.57
2018-11-03T07:41:55.049Z,20.57
2018-11-03T07:44:21.020Z,20.10
2018-11-03T07:46:47.026Z,20.87
2018-11-03T07:49:13.863Z,21.20
2018-11-03T07:51:40.544Z,19.50
2018-11-03T07:54:06.552Z,19.10
2018-11-03T07:56:33.270Z,18.20
2018-11-03T07:58:59.995Z,19.10
2018-11-03T08:01:26.053Z,17.97
2018-11-03T08:03:52.102Z,20.00
2018-11-03T08:06:18.076Z,18.87
2018-11-03T08:08:44.806Z,19.60
2018-11-03T08:11:10.791Z,18.00
2018-11-03T08:13:36.776Z,18.80
2018-11-03T08:16:02.749Z,21.50
2018-11-03T08:18:28.754Z,20.63
2018-11-03T08:20:54.749Z,19.00
2018-11-03T08:23:20.753Z,18.30
2018-11-03T08:25:46.741Z,19.87
2018-11-03T08:28:12.740Z,20.57
2018-11-03T08:30:40.079Z,17.97
2018-11-03T08:33:06.046Z,19.60
2018-11-03T08:35:31.992Z,21.87
2018-11-03T08:37:57.972Z,18.10
2018-11-03T08:40:23.953Z,19.73
2018-11-03T08:42:50.710Z,17.87
2018-11-03T08:45:16.744Z,18.60
2018-11-03T08:47:42.724Z,20.07
2018-11-03T08:50:08.726Z,21.07
2018-11-03T08:52:34.725Z,21.43
2018-11-03T08:55:00.898Z,21.63
2018-11-03T08:57:27.636Z,20.00
2018-11-03T08:59:53.764Z,19.53
2018-11-03T09:02:19.665Z,20.50
2018-11-03T09:04:45.991Z,21.33
2018-11-03T09:07:12.072Z,20.67
2018-11-03T09:09:37.997Z,19.77
2018-11-03T09:12:04.049Z,20.87
2018-11-03T09:14:30.058Z,20.50
2018-11-03T09:16:56.019Z,22.47
2018-11-03T09:19:22.021Z,22.17
2018-11-03T09:21:48.136Z,20.00
2018-11-03T09:24:14.085Z,19.33
2018-11-03T09:26:40.073Z,23.97
2018-11-03T09:29:06.096Z,21.07
2018-11-03T09:31:32.116Z,24.43
2018-11-03T09:33:58.092Z,21.00
2018-11-03T09:36:24.100Z,24.67
2018-11-03T09:38:50.103Z,21.63
2018-11-03T09:41:16.113Z,20.23
2018-11-03T09:43:42.138Z,19.30
2018-11-03T09:46:08.130Z,19.80
2018-11-03T09:48:34.115Z,20.77
2018-11-03T09:51:00.147Z,20.47
2018-11-03T09:53:26.085Z,20.63
2018-11-03T09:55:52.075Z,20.00
2018-11-03T09:58:18.065Z,21.73
2018-11-03T10:00:44.050Z,21.17
2018-11-03T10:03:10.069Z,21.20
2018-11-03T10:05:36.073Z,20.70
2018-11-03T10:08:03.137Z,21.80
2018-11-03T10:10:29.702Z,19.93
2018-11-03T10:12:56.174Z,21.70
2018-11-03T10:15:23.091Z,19.57
2018-11-03T10:17:49.879Z,18.20
2018-11-03T10:20:16.658Z,18.83
2018-11-03T10:22:45.622Z,19.37
2018-11-03T10:25:12.038Z,20.13
2018-11-03T10:27:38.647Z,21.20
2018-11-03T10:30:05.067Z,20.27
2018-11-03T10:32:31.606Z,19.13
2018-11-03T10:34:58.118Z,22.57
2018-11-03T10:37:24.600Z,20.80
2018-11-03T10:39:51.028Z,21.53
2018-11-03T10:42:17.481Z,20.03
2018-11-03T10:44:43.890Z,21.20
2018-11-03T10:47:10.656Z,17.80
2018-11-03T10:49:37.108Z,20.07
2018-11-03T10:52:03.464Z,18.27
2018-11-03T10:54:30.513Z,20.70
2018-11-03T10:56:57.049Z,19.43
2018-11-03T10:59:24.279Z,20.80
2018-11-03T11:02:06.051Z,23.70
2018-11-03T11:04:38.523Z,19.37
2018-11-03T11:07:13.028Z,19.43
2018-11-03T11:09:39.648Z,18.43
2018-11-03T11:12:10.936Z,19.07
2018-11-03T11:14:38.422Z,19.10
2018-11-03T11:17:05.037Z,19.23
2018-11-03T11:19:31.459Z,17.37
2018-11-03T11:21:57.831Z,19.03
2018-11-03T11:24:24.364Z,18.50
2018-11-03T11:26:50.831Z,21.47
2018-11-03T11:29:17.295Z,19.77
2018-11-03T11:31:51.128Z,21.07
2018-11-03T11:34:18.224Z,20.63
2018-11-03T11:36:45.202Z,21.77
2018-11-03T11:39:11.767Z,18.40
2018-11-03T11:41:39.094Z,17.87
2018-11-03T11:44:05.559Z,20.30
2018-11-03T11:46:31.527Z,19.57
2018-11-03T11:48:57.576Z,18.77
2018-11-03T11:51:23.573Z,19.50
2018-11-03T11:53:49.544Z,18.13
2018-11-03T11:56:15.548Z,18.37
2018-11-03T11:58:42.633Z,16.73
2018-11-03T12:01:09.243Z,16.17
2018-11-03T12:03:35.276Z,18.83
2018-11-03T12:06:01.273Z,17.33
2018-11-03T12:08:27.264Z,19.13
2018-11-03T12:10:54.776Z,18.53
2018-11-03T12:13:21.221Z,18.30
2018-11-03T12:15:47.730Z,18.93
2018-11-03T12:18:14.516Z,19.00
2018-11-03T12:20:41.223Z,22.70
2018-11-03T12:23:07.185Z,19.40
2018-11-03T12:25:34.561Z,20.17
2018-11-03T12:28:00.801Z,18.23
2018-11-03T12:30:26.816Z,18.10
2018-11-03T12:32:52.778Z,17.87
2018-11-03T12:35:18.768Z,18.07
2018-11-03T12:37:44.744Z,18.20
2018-11-03T12:40:10.725Z,17.67
2018-11-03T12:42:36.694Z,18.83
2018-11-03T12:45:02.708Z,17.63
2018-11-03T12:47:28.691Z,16.77
2018-11-03T12:49:54.710Z,20.80
2018-11-03T12:52:20.687Z,17.23
2018-11-03T12:54:46.685Z,18.70
2018-11-03T12:57:12.654Z,18.23
2018-11-03T12:59:39.380Z,17.83
2018-11-03T13:02:06.092Z,18.80
2018-11-03T13:04:32.095Z,18.20
2018-11-03T13:06:58.084Z,16.33
2018-11-03T13:09:24.126Z,18.50
2018-11-03T13:11:50.101Z,18.10
2018-11-03T13:14:16.075Z,17.20
2018-11-03T13:16:42.050Z,18.30
2018-11-03T13:19:08.017Z,17.53
2018-11-03T13:21:34.002Z,18.33
2018-11-03T13:24:00.725Z,19.23
2018-11-03T13:26:26.708Z,19.00
2018-11-03T13:28:52.705Z,19.47
2018-11-03T13:31:19.420Z,20.37
2018-11-03T13:33:45.401Z,18.90
2018-11-03T13:36:11.477Z,17.37
2018-11-03T13:38:38.189Z,19.03
2018-11-03T13:41:04.232Z,18.60
2018-11-03T13:43:30.193Z,16.77
2018-11-03T13:45:56.185Z,17.30
2018-11-03T13:48:22.164Z,18.10
2018-11-03T13:50:48.140Z,18.97
2018-11-03T13:53:14.880Z,17.57
2018-11-03T13:55:41.641Z,18.13
2018-11-03T13:58:07.624Z,18.77
2018-11-03T14:00:33.603Z,20.47
2018-11-03T14:02:59.600Z,18.10
2018-11-03T14:05:26.309Z,18.30
2018-11-03T14:07:52.288Z,19.17
2018-11-03T14:10:18.257Z,19.53
2018-11-03T14:12:44.275Z,18.37
2018-11-03T14:15:10.297Z,17.27
2018-11-03T14:17:36.248Z,16.77
2018-11-03T14:20:02.962Z,18.40
2018-11-03T14:22:28.944Z,18.27
2018-11-03T14:24:54.924Z,21.20
2018-11-03T14:27:20.906Z,18.27
2018-11-03T14:29:46.873Z,18.00
2018-11-03T14:32:13.597Z,18.30
2018-11-03T14:34:39.585Z,16.63
2018-11-03T14:37:05.577Z,16.13
2018-11-03T14:39:31.584Z,17.73
2018-11-03T14:41:58.304Z,17.60
2018-11-03T14:44:24.308Z,17.80
2018-11-03T14:46:50.301Z,16.30
2018-11-03T14:49:16.997Z,17.37
2018-11-03T14:51:42.992Z,17.70
2018-11-03T14:54:08.968Z,19.07
2018-11-03T14:56:35.733Z,18.33
2018-11-03T14:59:02.416Z,18.00
2018-11-03T15:01:28.428Z,18.87
2018-11-03T15:03:54.432Z,17.43
2018-11-03T15:06:20.413Z,15.87
2018-11-03T15:08:47.118Z,16.70
2018-11-03T15:11:13.105Z,16.77
2018-11-03T15:13:39.149Z,17.60
2018-11-03T15:16:05.035Z,17.27
2018-11-03T15:18:31.031Z,17.30
2018-11-03T15:20:57.082Z,16.50
2018-11-03T15:23:23.054Z,17.33
2018-11-03T15:25:49.041Z,16.57
2018-11-03T15:28:15.015Z,17.90
2018-11-03T15:30:40.992Z,17.20
2018-11-03T15:33:06.965Z,17.70
2018-11-03T15:35:32.960Z,17.33
2018-11-03T15:37:58.933Z,16.83
2018-11-03T15:40:25.691Z,18.70
2018-11-03T15:42:51.672Z,16.30
2018-11-03T15:45:17.653Z,17.23
2018-11-03T15:47:43.741Z,16.53
2018-11-03T15:50:09.660Z,16.73
2018-11-03T15:52:35.625Z,19.40
2018-11-03T15:55:01.640Z,16.73
2018-11-03T15:57:27.626Z,18.20
2018-11-03T15:59:54.358Z,17.10
2018-11-03T16:02:20.340Z,17.07
2018-11-03T16:04:46.378Z,15.70
2018-11-03T16:07:12.376Z,16.23
2018-11-03T16:09:38.345Z,16.87
2018-11-03T16:12:04.436Z,17.40
2018-11-03T16:14:30.408Z,16.53
2018-11-03T16:16:57.144Z,15.40
2018-11-03T16:19:23.934Z,20.03
2018-11-03T16:21:49.860Z,20.13
2018-11-03T16:24:15.911Z,19.53
2018-11-03T16:26:41.919Z,20.10
2018-11-03T16:29:07.904Z,19.93
2018-11-03T16:31:33.893Z,18.00
2018-11-03T16:33:59.878Z,18.27
2018-11-03T16:36:25.870Z,18.47
2018-11-03T16:38:51.855Z,20.23
2018-11-03T16:41:17.873Z,19.37
2018-11-03T16:43:43.856Z,20.30
2018-11-03T16:46:09.842Z,21.30
2018-11-03T16:48:36.584Z,18.80
2018-11-03T16:51:03.312Z,18.23
2018-11-03T16:53:29.320Z,17.77
2018-11-03T16:56:02.469Z,18.43
2018-11-03T16:58:28.537Z,18.00
2018-11-03T17:00:54.482Z,20.60
2018-11-03T17:03:20.462Z,20.67
2018-11-03T17:05:46.473Z,20.03
2018-11-03T17:08:12.533Z,21.27
2018-11-03T17:10:38.500Z,19.70
2018-11-03T17:13:04.505Z,21.47
2018-11-03T17:15:30.469Z,20.33
2018-11-03T17:17:56.442Z,21.57
2018-11-03T17:20:22.431Z,20.77
2018-11-03T17:22:48.393Z,21.47
2018-11-03T17:25:15.186Z,20.53
2018-11-03T17:27:41.847Z,21.93
2018-11-03T17:30:07.836Z,24.03
2018-11-03T17:32:33.896Z,20.57
2018-11-03T17:34:59.813Z,18.83
2018-11-03T17:37:25.784Z,20.37
2018-11-03T17:39:51.785Z,20.47
2018-11-03T17:42:17.844Z,20.43
2018-11-03T17:44:43.834Z,19.80
2018-11-03T17:47:10.573Z,21.40
2018-11-03T17:49:37.313Z,19.43
2018-11-03T17:52:04.032Z,22.60
2018-11-03T17:54:30.046Z,22.60
2018-11-03T17:56:56.067Z,20.30
2018-11-03T17:59:22.066Z,19.40
2018-11-03T18:01:48.104Z,20.53
2018-11-03T18:04:14.128Z,21.87
2018-11-03T18:06:40.177Z,22.17
2018-11-03T18:09:06.178Z,20.63
2018-11-03T18:11:32.255Z,20.70
2018-11-03T18:13:59.041Z,21.20
2018-11-03T18:16:25.062Z,21.47
2018-11-03T18:18:51.095Z,22.07
2018-11-03T18:21:17.113Z,21.17
2018-11-03T18:23:43.216Z,24.60
2018-11-03T18:26:09.263Z,25.83
2018-11-03T18:28:35.237Z,23.00
2018-11-03T18:31:01.432Z,24.10
2018-11-03T18:33:27.495Z,26.00
2018-11-03T18:35:53.421Z,27.50
2018-11-03T18:38:19.412Z,30.70
2018-11-03T18:40:45.501Z,27.60
2018-11-03T18:43:11.481Z,27.00
2018-11-03T18:45:38.217Z,28.57
2018-11-03T18:48:04.967Z,26.47
2018-11-03T18:50:31.695Z,25.47
2018-11-03T18:52:57.696Z,23.93
2018-11-03T18:55:23.679Z,25.33
2018-11-03T18:57:56.806Z,23.30
2018-11-03T19:00:22.797Z,25.47
2018-11-03T19:02:48.801Z,24.63
2018-11-03T19:05:15.514Z,26.43
2018-11-03T19:07:41.500Z,26.67
2018-11-03T19:10:07.485Z,24.77
2018-11-03T19:12:34.254Z,24.53
2018-11-03T19:15:00.319Z,23.77
2018-11-03T19:17:27.124Z,25.27
2018-11-03T19:19:53.186Z,22.90
2018-11-03T19:22:19.199Z,23.77
2018-11-03T19:24:45.179Z,23.60
2018-11-03T19:27:11.233Z,22.43
2018-11-03T19:29:37.237Z,22.13
2018-11-03T19:32:03.218Z,23.60
2018-11-03T19:34:29.224Z,22.93
2018-11-03T19:36:55.204Z,22.33
2018-11-03T19:39:21.218Z,21.67
2018-11-03T19:41:47.305Z,23.70
2018-11-03T19:44:13.944Z,23.23
2018-11-03T19:46:40.034Z,22.90
2018-11-03T19:49:06.023Z,21.10
2018-11-03T19:51:32.041Z,22.17
2018-11-03T19:53:58.001Z,21.93
2018-11-03T19:56:23.993Z,23.33
2018-11-03T19:58:49.987Z,22.43
2018-11-03T20:01:15.984Z,22.80
2018-11-03T20:03:41.988Z,23.37
2018-11-03T20:06:07.996Z,21.97
2018-11-03T20:08:33.993Z,22.23
2018-11-03T20:11:00.713Z,25.00
2018-11-03T20:13:26.742Z,24.80
2018-11-03T20:15:52.716Z,22.67
2018-11-03T20:18:18.705Z,22.07
2018-11-03T20:20:45.414Z,24.27
2018-11-03T20:23:11.441Z,24.03
2018-11-03T20:25:37.462Z,21.40
2018-11-03T20:28:03.471Z,21.07
2018-11-03T20:30:29.578Z,23.63
2018-11-03T20:32:55.553Z,24.27
2018-11-03T20:35:21.513Z,23.03
2018-11-03T20:37:47.506Z,23.20
2018-11-03T20:40:14.215Z,20.30
2018-11-03T20:42:40.208Z,21.90
2018-11-03T20:45:06.186Z,21.17
2018-11-03T20:47:32.920Z,22.63
2018-11-03T20:50:06.089Z,24.10
2018-11-03T20:52:32.112Z,21.97
2018-11-03T20:54:58.889Z,27.13
2018-11-03T20:57:25.612Z,24.70
2018-11-03T20:59:51.590Z,35.10
2018-11-03T21:02:17.582Z,28.70
2018-11-03T21:04:43.599Z,30.00
2018-11-03T21:07:10.340Z,24.90
2018-11-03T21:09:37.087Z,24.37
2018-11-03T21:12:03.186Z,26.13
2018-11-03T21:14:29.183Z,25.07
2018-11-03T21:16:55.196Z,25.60
2018-11-03T21:19:21.210Z,24.50
2018-11-03T21:21:57.959Z,22.40
2018-11-03T21:24:24.019Z,25.60
2018-11-03T21:26:50.064Z,24.97
2018-11-03T21:29:16.085Z,21.70
2018-11-03T21:31:42.097Z,24.80
2018-11-03T21:34:08.089Z,28.40
2018-11-03T21:36:34.090Z,26.37
2018-11-03T21:39:00.844Z,23.73
2018-11-03T21:41:26.883Z,30.03
2018-11-03T21:43:52.905Z,34.97
2018-11-03T21:46:18.976Z,26.90
2018-11-03T21:48:44.962Z,28.50
2018-11-03T21:51:10.978Z,24.70
2018-11-03T21:53:37.133Z,24.17
2018-11-03T21:56:03.208Z,25.23
2018-11-03T21:58:29.206Z,23.77
2018-11-03T22:00:55.220Z,22.70
2018-11-03T22:03:21.485Z,22.90
2018-11-03T22:05:48.214Z,27.03
2018-11-03T22:08:14.280Z,24.73
2018-11-03T22:10:40.296Z,25.43
2018-11-03T22:13:06.296Z,27.90
2018-11-03T22:15:33.030Z,30.20
2018-11-03T22:17:59.780Z,28.23
2018-11-03T22:20:26.541Z,25.60
2018-11-03T22:22:52.599Z,23.07
2018-11-03T22:25:18.620Z,24.97
2018-11-03T22:27:44.669Z,27.37
2018-11-03T22:30:10.643Z,30.27
2018-11-03T22:32:36.668Z,25.23
2018-11-03T22:35:02.711Z,23.83
2018-11-03T22:37:28.720Z,27.63
2018-11-03T22:39:54.744Z,24.00
2018-11-03T22:42:20.742Z,24.63
2018-11-03T22:44:46.786Z,28.00
2018-11-03T22:47:12.783Z,28.53
2018-11-03T22:49:39.508Z,28.10
2018-11-03T22:52:05.544Z,25.00
2018-11-03T22:54:32.309Z,25.53
2018-11-03T22:56:58.361Z,25.33
2018-11-03T22:59:24.368Z,22.70
2018-11-03T23:01:50.430Z,25.50
2018-11-03T23:04:16.429Z,28.17
2018-11-03T23:06:42.432Z,26.17
2018-11-03T23:09:08.464Z,26.87
2018-11-03T23:11:34.505Z,28.43
2018-11-03T23:14:00.508Z,26.73
2018-11-03T23:16:26.508Z,26.10
2018-11-03T23:18:52.577Z,22.67
2018-11-03T23:21:18.620Z,22.57
2018-11-03T23:23:44.605Z,23.77
2018-11-03T23:26:10.609Z,24.27
2018-11-03T23:28:36.649Z,30.53
2018-11-03T23:31:02.666Z,23.53
2018-11-03T23:33:28.686Z,24.17
2018-11-03T23:36:01.839Z,23.07
2018-11-03T23:38:27.862Z,23.90
2018-11-03T23:40:53.894Z,23.93
2018-11-03T23:43:20.650Z,23.83
2018-11-03T23:45:46.648Z,31.73
2018-11-03T23:48:12.656Z,21.60
2018-11-03T23:50:38.703Z,24.37
2018-11-03T23:53:04.770Z,22.40
2018-11-03T23:55:31.491Z,24.20
2018-11-03T23:57:57.511Z,28.70
